sensor_id;sensor_type;location;lat;lon;timestamp;P1;durP1;ratioP1;P2;durP2;ratioP2
2225;SDS011;1119;48.288;8.726;2023-04-09T00:02:04;12.53;;;11.27;;
2225;SDS011;1119;48.288;8.726;2023-04-09T00:04:51;13.23;;;11.77;;
2225;SDS011;1119;48.288;8.726;2023-04-09T00:07:39;12.37;;;11.20;;
2225;SDS011;1119;48.288;8.726;2023-04-09T00:10:27;14.80;;;12.90;;
2225;SDS011;1119;48.288;8.726;2023-04-09T00:13:15;14.13;;;11.90;;
2225;SDS011;1119;48.288;8.726;2023-04-09T00:16:03;10.00;;;9.10;;
2225;SDS011;1119;48.288;8.726;2023-04-09T00:18:51;11.67;;;10.47;;
2225;SDS011;1119;48.288;8.726;2023-04-09T00:21:39;11.73;;;10.53;;
2225;SDS011;1119;48.288;8.726;2023-04-09T00:24:26;13.40;;;12.00;;
2225;SDS011;1119;48.288;8.726;2023-04-09T00:27:14;12.63;;;11.53;;
2225;SDS011;1119;48.288;8.726;2023-04-09T00:30:03;14.73;;;9.90;;
2225;SDS011;1119;48.288;8.726;2023-04-09T00:32:52;11.63;;;10.50;;
2225;SDS011;1119;48.288;8.726;2023-04-09T00:35:40;11.70;;;10.60;;
2225;SDS011;1119;48.288;8.726;2023-04-09T00:38:27;11.03;;;10.07;;
2225;SDS011;1119;48.288;8.726;2023-04-09T00:41:16;13.77;;;12.00;;
2225;SDS011;1119;48.288;8.726;2023-04-09T00:44:03;11.67;;;10.43;;
2225;SDS011;1119;48.288;8.726;2023-04-09T00:46:52;11.10;;;10.10;;
2225;SDS011;1119;48.288;8.726;2023-04-09T00:49:40;10.80;;;9.80;;
2225;SDS011;1119;48.288;8.726;2023-04-09T00:52:29;13.87;;;10.53;;
2225;SDS011;1119;48.288;8.726;2023-04-09T00:55:17;11.37;;;10.20;;
2225;SDS011;1119;48.288;8.726;2023-04-09T00:58:07;12.77;;;10.63;;
2225;SDS011;1119;48.288;8.726;2023-04-09T01:00:54;14.03;;;12.53;;
2225;SDS011;1119;48.288;8.726;2023-04-09T01:03:43;14.63;;;11.57;;
2225;SDS011;1119;48.288;8.726;2023-04-09T01:06:32;14.47;;;12.07;;
2225;SDS011;1119;48.288;8.726;2023-04-09T01:09:26;15.60;;;13.40;;
2225;SDS011;1119;48.288;8.726;2023-04-09T01:12:31;13.10;;;11.70;;
2225;SDS011;1119;48.288;8.726;2023-04-09T01:15:25;13.93;;;12.40;;
2225;SDS011;1119;48.288;8.726;2023-04-09T01:18:18;18.07;;;13.30;;
2225;SDS011;1119;48.288;8.726;2023-04-09T01:21:15;15.53;;;13.80;;
2225;SDS011;1119;48.288;8.726;2023-04-09T01:24:09;15.70;;;13.90;;
2225;SDS011;1119;48.288;8.726;2023-04-09T01:27:09;19.17;;;15.10;;
2225;SDS011;1119;48.288;8.726;2023-04-09T01:30:08;18.33;;;14.10;;
2225;SDS011;1119;48.288;8.726;2023-04-09T01:32:58;14.10;;;12.60;;
2225;SDS011;1119;48.288;8.726;2023-04-09T01:35:47;17.57;;;14.57;;
2225;SDS011;1119;48.288;8.726;2023-04-09T01:38:38;17.13;;;14.27;;
2225;SDS011;1119;48.288;8.726;2023-04-09T01:41:30;21.57;;;14.33;;
2225;SDS011;1119;48.288;8.726;2023-04-09T01:44:19;17.77;;;14.50;;
2225;SDS011;1119;48.288;8.726;2023-04-09T01:47:08;18.47;;;14.10;;
2225;SDS011;1119;48.288;8.726;2023-04-09T01:49:56;18.73;;;14.57;;
2225;SDS011;1119;48.288;8.726;2023-04-09T01:52:45;17.37;;;14.70;;
2225;SDS011;1119;48.288;8.726;2023-04-09T01:55:32;17.63;;;14.23;;
2225;SDS011;1119;48.288;8.726;2023-04-09T01:58:20;16.67;;;14.20;;
2225;SDS011;1119;48.288;8.726;2023-04-09T02:01:08;17.23;;;14.63;;
2225;SDS011;1119;48.288;8.726;2023-04-09T02:04:01;19.87;;;13.90;;
2225;SDS011;1119;48.288;8.726;2023-04-09T02:06:52;17.93;;;13.47;;
2225;SDS011;1119;48.288;8.726;2023-04-09T02:09:45;17.07;;;13.57;;
2225;SDS011;1119;48.288;8.726;2023-04-09T02:12:34;14.33;;;12.50;;
2225;SDS011;1119;48.288;8.726;2023-04-09T02:15:25;16.60;;;13.60;;
2225;SDS011;1119;48.288;8.726;2023-04-09T02:18:20;16.50;;;13.83;;
2225;SDS011;1119;48.288;8.726;2023-04-09T02:21:11;18.70;;;14.07;;
2225;SDS011;1119;48.288;8.726;2023-04-09T02:23:59;15.77;;;13.67;;
2225;SDS011;1119;48.288;8.726;2023-04-09T02:26:46;17.70;;;12.53;;
2225;SDS011;1119;48.288;8.726;2023-04-09T02:29:34;12.90;;;11.43;;
2225;SDS011;1119;48.288;8.726;2023-04-09T02:32:22;15.47;;;13.13;;
2225;SDS011;1119;48.288;8.726;2023-04-09T02:35:10;15.30;;;12.37;;
2225;SDS011;1119;48.288;8.726;2023-04-09T02:37:59;15.43;;;12.53;;
2225;SDS011;1119;48.288;8.726;2023-04-09T02:40:46;16.97;;;14.63;;
2225;SDS011;1119;48.288;8.726;2023-04-09T02:43:34;17.40;;;12.20;;
2225;SDS011;1119;48.288;8.726;2023-04-09T02:46:21;15.80;;;13.50;;
2225;SDS011;1119;48.288;8.726;2023-04-09T02:49:09;14.57;;;12.93;;
2225;SDS011;1119;48.288;8.726;2023-04-09T02:51:56;16.80;;;13.07;;
2225;SDS011;1119;48.288;8.726;2023-04-09T02:54:45;17.17;;;13.37;;
2225;SDS011;1119;48.288;8.726;2023-04-09T02:57:33;12.40;;;11.20;;
2225;SDS011;1119;48.288;8.726;2023-04-09T03:00:21;15.13;;;11.60;;
2225;SDS011;1119;48.288;8.726;2023-04-09T03:03:08;15.57;;;12.97;;
2225;SDS011;1119;48.288;8.726;2023-04-09T03:05:56;15.87;;;12.33;;
2225;SDS011;1119;48.288;8.726;2023-04-09T03:08:44;14.97;;;12.80;;
2225;SDS011;1119;48.288;8.726;2023-04-09T03:11:33;14.63;;;12.40;;
2225;SDS011;1119;48.288;8.726;2023-04-09T03:14:20;13.83;;;12.50;;
2225;SDS011;1119;48.288;8.726;2023-04-09T03:17:08;14.20;;;12.20;;
2225;SDS011;1119;48.288;8.726;2023-04-09T03:19:56;13.77;;;11.67;;
2225;SDS011;1119;48.288;8.726;2023-04-09T03:22:52;16.53;;;14.10;;
2225;SDS011;1119;48.288;8.726;2023-04-09T03:26:02;17.23;;;14.50;;
2225;SDS011;1119;48.288;8.726;2023-04-09T03:29:00;18.40;;;12.97;;
2225;SDS011;1119;48.288;8.726;2023-04-09T03:31:49;15.17;;;12.53;;
2225;SDS011;1119;48.288;8.726;2023-04-09T03:34:36;14.50;;;13.00;;
2225;SDS011;1119;48.288;8.726;2023-04-09T03:37:24;17.97;;;14.60;;
2225;SDS011;1119;48.288;8.726;2023-04-09T03:40:12;16.83;;;12.10;;
2225;SDS011;1119;48.288;8.726;2023-04-09T03:43:00;24.03;;;14.13;;
2225;SDS011;1119;48.288;8.726;2023-04-09T03:45:52;17.40;;;13.60;;
2225;SDS011;1119;48.288;8.726;2023-04-09T03:48:44;12.70;;;11.20;;
2225;SDS011;1119;48.288;8.726;2023-04-09T03:51:31;14.63;;;13.13;;
2225;SDS011;1119;48.288;8.726;2023-04-09T03:54:20;14.20;;;12.50;;
2225;SDS011;1119;48.288;8.726;2023-04-09T03:57:07;17.77;;;13.50;;
2225;SDS011;1119;48.288;8.726;2023-04-09T03:59:58;20.07;;;15.07;;
2225;SDS011;1119;48.288;8.726;2023-04-09T04:02:49;15.20;;;13.23;;
2225;SDS011;1119;48.288;8.726;2023-04-09T04:05:44;13.33;;;12.03;;
2225;SDS011;1119;48.288;8.726;2023-04-09T04:08:34;15.63;;;13.57;;
2225;SDS011;1119;48.288;8.726;2023-04-09T04:11:21;17.97;;;14.70;;
2225;SDS011;1119;48.288;8.726;2023-04-09T04:14:13;14.10;;;12.43;;
2225;SDS011;1119;48.288;8.726;2023-04-09T04:17:04;15.07;;;12.67;;
2225;SDS011;1119;48.288;8.726;2023-04-09T04:19:53;14.60;;;12.77;;
2225;SDS011;1119;48.288;8.726;2023-04-09T04:22:42;15.47;;;11.77;;
2225;SDS011;1119;48.288;8.726;2023-04-09T04:25:30;17.23;;;13.07;;
2225;SDS011;1119;48.288;8.726;2023-04-09T04:28:19;15.13;;;12.83;;
2225;SDS011;1119;48.288;8.726;2023-04-09T04:31:07;16.80;;;13.10;;
2225;SDS011;1119;48.288;8.726;2023-04-09T04:33:55;12.93;;;11.63;;
2225;SDS011;1119;48.288;8.726;2023-04-09T04:36:44;14.90;;;12.60;;
2225;SDS011;1119;48.288;8.726;2023-04-09T04:39:32;16.70;;;12.67;;
2225;SDS011;1119;48.288;8.726;2023-04-09T04:42:25;14.90;;;12.20;;
2225;SDS011;1119;48.288;8.726;2023-04-09T04:45:13;15.63;;;12.53;;
2225;SDS011;1119;48.288;8.726;2023-04-09T04:48:05;13.47;;;11.97;;
2225;SDS011;1119;48.288;8.726;2023-04-09T04:50:53;15.60;;;14.00;;
2225;SDS011;1119;48.288;8.726;2023-04-09T04:53:44;16.37;;;12.47;;
2225;SDS011;1119;48.288;8.726;2023-04-09T04:56:33;17.13;;;12.30;;
2225;SDS011;1119;48.288;8.726;2023-04-09T04:59:27;16.40;;;10.57;;
2225;SDS011;1119;48.288;8.726;2023-04-09T05:02:20;13.57;;;11.20;;
2225;SDS011;1119;48.288;8.726;2023-04-09T05:05:17;16.20;;;11.93;;
2225;SDS011;1119;48.288;8.726;2023-04-09T05:08:14;12.57;;;11.23;;
2225;SDS011;1119;48.288;8.726;2023-04-09T05:11:03;14.00;;;12.47;;
2225;SDS011;1119;48.288;8.726;2023-04-09T05:13:55;15.77;;;12.40;;
2225;SDS011;1119;48.288;8.726;2023-04-09T05:16:43;15.10;;;12.37;;
2225;SDS011;1119;48.288;8.726;2023-04-09T05:19:31;18.33;;;12.73;;
2225;SDS011;1119;48.288;8.726;2023-04-09T05:22:21;14.97;;;13.20;;
2225;SDS011;1119;48.288;8.726;2023-04-09T05:25:10;19.20;;;13.73;;
2225;SDS011;1119;48.288;8.726;2023-04-09T05:28:02;16.30;;;11.07;;
2225;SDS011;1119;48.288;8.726;2023-04-09T05:30:52;16.80;;;13.40;;
2225;SDS011;1119;48.288;8.726;2023-04-09T05:33:39;15.07;;;13.47;;
2225;SDS011;1119;48.288;8.726;2023-04-09T05:36:34;17.17;;;13.23;;
2225;SDS011;1119;48.288;8.726;2023-04-09T05:39:22;18.33;;;12.90;;
2225;SDS011;1119;48.288;8.726;2023-04-09T05:42:11;17.57;;;13.10;;
2225;SDS011;1119;48.288;8.726;2023-04-09T05:45:19;17.97;;;13.37;;
2225;SDS011;1119;48.288;8.726;2023-04-09T05:48:10;18.60;;;12.33;;
2225;SDS011;1119;48.288;8.726;2023-04-09T05:50:58;20.30;;;15.10;;
2225;SDS011;1119;48.288;8.726;2023-04-09T05:53:46;18.23;;;13.33;;
2225;SDS011;1119;48.288;8.726;2023-04-09T05:56:34;17.90;;;13.50;;
2225;SDS011;1119;48.288;8.726;2023-04-09T05:59:22;18.10;;;12.57;;
2225;SDS011;1119;48.288;8.726;2023-04-09T06:02:11;19.83;;;14.67;;
2225;SDS011;1119;48.288;8.726;2023-04-09T06:04:58;16.80;;;12.83;;
2225;SDS011;1119;48.288;8.726;2023-04-09T06:07:46;17.63;;;12.00;;
2225;SDS011;1119;48.288;8.726;2023-04-09T06:10:34;14.90;;;12.10;;
2225;SDS011;1119;48.288;8.726;2023-04-09T06:13:21;17.43;;;13.07;;
2225;SDS011;1119;48.288;8.726;2023-04-09T06:16:10;17.00;;;13.13;;
2225;SDS011;1119;48.288;8.726;2023-04-09T06:18:58;16.87;;;14.20;;
2225;SDS011;1119;48.288;8.726;2023-04-09T06:21:46;19.03;;;15.07;;
2225;SDS011;1119;48.288;8.726;2023-04-09T06:24:33;18.90;;;14.27;;
2225;SDS011;1119;48.288;8.726;2023-04-09T06:27:21;23.73;;;15.80;;
2225;SDS011;1119;48.288;8.726;2023-04-09T06:30:09;17.00;;;12.90;;
2225;SDS011;1119;48.288;8.726;2023-04-09T06:32:57;16.30;;;14.70;;
2225;SDS011;1119;48.288;8.726;2023-04-09T06:35:47;16.30;;;12.03;;
2225;SDS011;1119;48.288;8.726;2023-04-09T06:38:35;16.50;;;13.30;;
2225;SDS011;1119;48.288;8.726;2023-04-09T06:41:22;18.13;;;14.30;;
2225;SDS011;1119;48.288;8.726;2023-04-09T06:44:11;15.70;;;12.67;;
2225;SDS011;1119;48.288;8.726;2023-04-09T06:46:58;15.10;;;13.70;;
2225;SDS011;1119;48.288;8.726;2023-04-09T06:49:46;14.77;;;13.33;;
2225;SDS011;1119;48.288;8.726;2023-04-09T06:52:35;18.67;;;16.90;;
2225;SDS011;1119;48.288;8.726;2023-04-09T06:55:23;23.30;;;21.23;;
2225;SDS011;1119;48.288;8.726;2023-04-09T06:58:11;37.27;;;35.00;;
2225;SDS011;1119;48.288;8.726;2023-04-09T07:00:59;43.93;;;40.93;;
2225;SDS011;1119;48.288;8.726;2023-04-09T07:03:46;50.40;;;47.50;;
2225;SDS011;1119;48.288;8.726;2023-04-09T07:06:34;59.73;;;55.97;;
2225;SDS011;1119;48.288;8.726;2023-04-09T07:09:23;46.63;;;44.03;;
2225;SDS011;1119;48.288;8.726;2023-04-09T07:12:10;60.23;;;56.87;;
2225;SDS011;1119;48.288;8.726;2023-04-09T07:14:58;51.93;;;48.70;;
2225;SDS011;1119;48.288;8.726;2023-04-09T07:17:46;63.30;;;59.50;;
2225;SDS011;1119;48.288;8.726;2023-04-09T07:20:33;55.43;;;52.33;;
2225;SDS011;1119;48.288;8.726;2023-04-09T07:23:21;27.60;;;25.73;;
2225;SDS011;1119;48.288;8.726;2023-04-09T07:26:10;26.90;;;24.63;;
2225;SDS011;1119;48.288;8.726;2023-04-09T07:28:57;30.83;;;28.73;;
2225;SDS011;1119;48.288;8.726;2023-04-09T07:31:45;30.20;;;28.00;;
2225;SDS011;1119;48.288;8.726;2023-04-09T07:34:33;34.87;;;32.77;;
2225;SDS011;1119;48.288;8.726;2023-04-09T07:37:22;36.80;;;34.40;;
2225;SDS011;1119;48.288;8.726;2023-04-09T07:40:10;37.43;;;34.97;;
2225;SDS011;1119;48.288;8.726;2023-04-09T07:42:59;22.30;;;20.30;;
2225;SDS011;1119;48.288;8.726;2023-04-09T07:45:47;20.20;;;18.60;;
2225;SDS011;1119;48.288;8.726;2023-04-09T07:51:45;22.40;;;20.20;;
2225;SDS011;1119;48.288;8.726;2023-04-09T07:54:32;22.17;;;20.13;;
2225;SDS011;1119;48.288;8.726;2023-04-09T07:57:20;23.63;;;21.40;;
2225;SDS011;1119;48.288;8.726;2023-04-09T08:00:10;25.87;;;23.93;;
2225;SDS011;1119;48.288;8.726;2023-04-09T08:02:58;24.63;;;22.77;;
2225;SDS011;1119;48.288;8.726;2023-04-09T08:05:46;31.03;;;28.53;;
2225;SDS011;1119;48.288;8.726;2023-04-09T08:08:33;35.70;;;33.43;;
2225;SDS011;1119;48.288;8.726;2023-04-09T08:11:21;43.97;;;41.33;;
2225;SDS011;1119;48.288;8.726;2023-04-09T08:14:10;63.17;;;59.47;;
2225;SDS011;1119;48.288;8.726;2023-04-09T08:16:59;63.60;;;59.90;;
2225;SDS011;1119;48.288;8.726;2023-04-09T08:19:47;49.60;;;47.00;;
2225;SDS011;1119;48.288;8.726;2023-04-09T08:22:35;84.73;;;79.90;;
2225;SDS011;1119;48.288;8.726;2023-04-09T08:25:22;24.60;;;22.83;;
2225;SDS011;1119;48.288;8.726;2023-04-09T08:28:10;18.70;;;16.90;;
2225;SDS011;1119;48.288;8.726;2023-04-09T08:30:58;14.80;;;12.93;;
2225;SDS011;1119;48.288;8.726;2023-04-09T08:33:47;15.37;;;14.00;;
2225;SDS011;1119;48.288;8.726;2023-04-09T08:36:34;17.07;;;13.10;;
2225;SDS011;1119;48.288;8.726;2023-04-09T08:39:22;17.90;;;16.13;;
2225;SDS011;1119;48.288;8.726;2023-04-09T08:42:09;20.47;;;18.67;;
2225;SDS011;1119;48.288;8.726;2023-04-09T08:44:58;53.80;;;50.37;;
2225;SDS011;1119;48.288;8.726;2023-04-09T08:47:45;29.93;;;28.10;;
2225;SDS011;1119;48.288;8.726;2023-04-09T08:50:36;37.07;;;34.93;;
2225;SDS011;1119;48.288;8.726;2023-04-09T08:53:24;14.73;;;9.20;;
2225;SDS011;1119;48.288;8.726;2023-04-09T08:56:12;11.23;;;8.70;;
2225;SDS011;1119;48.288;8.726;2023-04-09T08:59:00;8.30;;;7.47;;
2225;SDS011;1119;48.288;8.726;2023-04-09T09:01:48;15.73;;;10.50;;
2225;SDS011;1119;48.288;8.726;2023-04-09T09:04:45;9.27;;;8.40;;
2225;SDS011;1119;48.288;8.726;2023-04-09T09:07:35;8.77;;;7.97;;
2225;SDS011;1119;48.288;8.726;2023-04-09T09:10:39;10.20;;;7.90;;
2225;SDS011;1119;48.288;8.726;2023-04-09T09:13:28;11.50;;;7.90;;
2225;SDS011;1119;48.288;8.726;2023-04-09T09:16:16;11.03;;;9.43;;
2225;SDS011;1119;48.288;8.726;2023-04-09T09:19:05;9.20;;;8.20;;
2225;SDS011;1119;48.288;8.726;2023-04-09T09:21:54;8.07;;;7.27;;
2225;SDS011;1119;48.288;8.726;2023-04-09T09:24:46;10.90;;;7.10;;
2225;SDS011;1119;48.288;8.726;2023-04-09T09:27:36;9.33;;;8.10;;
2225;SDS011;1119;48.288;8.726;2023-04-09T09:30:25;13.60;;;11.60;;
2225;SDS011;1119;48.288;8.726;2023-04-09T09:33:13;11.57;;;10.17;;
2225;SDS011;1119;48.288;8.726;2023-04-09T09:36:01;10.27;;;8.57;;
2225;SDS011;1119;48.288;8.726;2023-04-09T09:38:50;11.13;;;9.63;;
2225;SDS011;1119;48.288;8.726;2023-04-09T09:41:41;11.10;;;10.00;;
2225;SDS011;1119;48.288;8.726;2023-04-09T09:44:30;11.97;;;10.43;;
2225;SDS011;1119;48.288;8.726;2023-04-09T09:47:19;11.20;;;10.10;;
2225;SDS011;1119;48.288;8.726;2023-04-09T09:50:08;13.80;;;9.90;;
2225;SDS011;1119;48.288;8.726;2023-04-09T09:52:57;11.03;;;9.93;;
2225;SDS011;1119;48.288;8.726;2023-04-09T09:55:49;12.60;;;11.07;;
2225;SDS011;1119;48.288;8.726;2023-04-09T09:58:41;13.63;;;12.47;;
2225;SDS011;1119;48.288;8.726;2023-04-09T10:01:33;9.10;;;8.20;;
2225;SDS011;1119;48.288;8.726;2023-04-09T10:04:21;11.30;;;8.67;;
2225;SDS011;1119;48.288;8.726;2023-04-09T10:07:13;10.07;;;8.47;;
2225;SDS011;1119;48.288;8.726;2023-04-09T10:10:01;11.07;;;8.03;;
2225;SDS011;1119;48.288;8.726;2023-04-09T10:12:51;11.50;;;7.77;;
2225;SDS011;1119;48.288;8.726;2023-04-09T10:15:40;7.90;;;7.10;;
2225;SDS011;1119;48.288;8.726;2023-04-09T10:18:29;9.33;;;8.20;;
2225;SDS011;1119;48.288;8.726;2023-04-09T10:21:21;8.70;;;8.00;;
2225;SDS011;1119;48.288;8.726;2023-04-09T10:24:17;9.63;;;8.77;;
2225;SDS011;1119;48.288;8.726;2023-04-09T10:27:08;9.37;;;8.40;;
2225;SDS011;1119;48.288;8.726;2023-04-09T10:29:57;9.10;;;7.50;;
2225;SDS011;1119;48.288;8.726;2023-04-09T10:32:47;11.30;;;10.30;;
2225;SDS011;1119;48.288;8.726;2023-04-09T10:35:34;10.47;;;8.30;;
2225;SDS011;1119;48.288;8.726;2023-04-09T10:38:31;8.67;;;6.80;;
2225;SDS011;1119;48.288;8.726;2023-04-09T10:41:21;10.83;;;9.27;;
2225;SDS011;1119;48.288;8.726;2023-04-09T10:44:21;9.47;;;8.53;;
2225;SDS011;1119;48.288;8.726;2023-04-09T10:47:10;10.00;;;9.07;;
2225;SDS011;1119;48.288;8.726;2023-04-09T10:49:59;9.23;;;8.10;;
2225;SDS011;1119;48.288;8.726;2023-04-09T10:53:04;11.30;;;9.17;;
2225;SDS011;1119;48.288;8.726;2023-04-09T10:55:52;10.73;;;9.63;;
2225;SDS011;1119;48.288;8.726;2023-04-09T10:58:41;10.27;;;9.27;;
2225;SDS011;1119;48.288;8.726;2023-04-09T11:01:29;12.47;;;10.57;;
2225;SDS011;1119;48.288;8.726;2023-04-09T11:04:16;11.10;;;9.27;;
2225;SDS011;1119;48.288;8.726;2023-04-09T11:07:08;13.07;;;9.00;;
2225;SDS011;1119;48.288;8.726;2023-04-09T11:09:56;8.37;;;7.57;;
2225;SDS011;1119;48.288;8.726;2023-04-09T11:12:45;8.50;;;7.70;;
2225;SDS011;1119;48.288;8.726;2023-04-09T11:15:33;10.37;;;7.80;;
2225;SDS011;1119;48.288;8.726;2023-04-09T11:18:23;10.47;;;8.67;;
2225;SDS011;1119;48.288;8.726;2023-04-09T11:21:11;13.60;;;11.50;;
2225;SDS011;1119;48.288;8.726;2023-04-09T11:24:00;10.97;;;9.33;;
2225;SDS011;1119;48.288;8.726;2023-04-09T11:26:48;13.07;;;8.60;;
2225;SDS011;1119;48.288;8.726;2023-04-09T11:29:35;9.77;;;8.77;;
2225;SDS011;1119;48.288;8.726;2023-04-09T11:32:27;11.23;;;8.73;;
2225;SDS011;1119;48.288;8.726;2023-04-09T11:35:17;11.30;;;8.63;;
2225;SDS011;1119;48.288;8.726;2023-04-09T11:38:06;10.40;;;7.90;;
2225;SDS011;1119;48.288;8.726;2023-04-09T11:40:57;11.40;;;9.00;;
2225;SDS011;1119;48.288;8.726;2023-04-09T11:43:45;9.83;;;8.83;;
2225;SDS011;1119;48.288;8.726;2023-04-09T11:46:33;9.63;;;8.63;;
2225;SDS011;1119;48.288;8.726;2023-04-09T11:49:21;12.00;;;10.67;;
2225;SDS011;1119;48.288;8.726;2023-04-09T11:52:09;11.07;;;9.80;;
2225;SDS011;1119;48.288;8.726;2023-04-09T11:54:58;13.97;;;12.70;;
2225;SDS011;1119;48.288;8.726;2023-04-09T11:57:48;10.10;;;8.67;;
2225;SDS011;1119;48.288;8.726;2023-04-09T12:00:39;9.83;;;8.93;;
2225;SDS011;1119;48.288;8.726;2023-04-09T12:03:27;10.60;;;9.57;;
2225;SDS011;1119;48.288;8.726;2023-04-09T12:06:17;11.50;;;10.20;;
2225;SDS011;1119;48.288;8.726;2023-04-09T12:09:09;10.03;;;9.03;;
2225;SDS011;1119;48.288;8.726;2023-04-09T12:11:58;11.93;;;10.67;;
2225;SDS011;1119;48.288;8.726;2023-04-09T12:14:48;9.27;;;8.03;;
2225;SDS011;1119;48.288;8.726;2023-04-09T12:17:38;16.10;;;14.50;;
2225;SDS011;1119;48.288;8.726;2023-04-09T12:20:25;8.40;;;7.63;;
2225;SDS011;1119;48.288;8.726;2023-04-09T12:23:14;9.77;;;8.97;;
2225;SDS011;1119;48.288;8.726;2023-04-09T12:26:02;11.23;;;10.10;;
2225;SDS011;1119;48.288;8.726;2023-04-09T12:28:50;10.37;;;9.27;;
2225;SDS011;1119;48.288;8.726;2023-04-09T12:31:38;8.07;;;7.27;;
2225;SDS011;1119;48.288;8.726;2023-04-09T12:34:26;8.77;;;7.87;;
2225;SDS011;1119;48.288;8.726;2023-04-09T12:37:13;8.07;;;7.10;;
2225;SDS011;1119;48.288;8.726;2023-04-09T12:40:01;9.83;;;8.53;;
2225;SDS011;1119;48.288;8.726;2023-04-09T12:42:49;8.73;;;7.90;;
2225;SDS011;1119;48.288;8.726;2023-04-09T12:45:37;7.80;;;7.10;;
2225;SDS011;1119;48.288;8.726;2023-04-09T12:48:25;8.03;;;7.30;;
2225;SDS011;1119;48.288;8.726;2023-04-09T12:51:13;6.50;;;6.00;;
2225;SDS011;1119;48.288;8.726;2023-04-09T12:54:01;7.70;;;7.00;;
2225;SDS011;1119;48.288;8.726;2023-04-09T12:56:49;7.27;;;6.50;;
2225;SDS011;1119;48.288;8.726;2023-04-09T12:59:37;9.10;;;8.23;;
2225;SDS011;1119;48.288;8.726;2023-04-09T13:02:25;8.37;;;7.47;;
2225;SDS011;1119;48.288;8.726;2023-04-09T13:05:14;8.17;;;7.30;;
2225;SDS011;1119;48.288;8.726;2023-04-09T13:08:02;8.97;;;8.17;;
2225;SDS011;1119;48.288;8.726;2023-04-09T13:10:50;8.30;;;6.90;;
2225;SDS011;1119;48.288;8.726;2023-04-09T13:13:37;8.53;;;7.73;;
2225;SDS011;1119;48.288;8.726;2023-04-09T13:16:24;8.37;;;7.07;;
2225;SDS011;1119;48.288;8.726;2023-04-09T13:19:13;11.67;;;10.87;;
2225;SDS011;1119;48.288;8.726;2023-04-09T13:22:02;10.00;;;8.60;;
2225;SDS011;1119;48.288;8.726;2023-04-09T13:24:52;8.40;;;7.43;;
2225;SDS011;1119;48.288;8.726;2023-04-09T13:27:42;8.13;;;7.40;;
2225;SDS011;1119;48.288;8.726;2023-04-09T13:30:29;7.53;;;6.70;;
2225;SDS011;1119;48.288;8.726;2023-04-09T13:33:17;8.73;;;7.93;;
2225;SDS011;1119;48.288;8.726;2023-04-09T13:36:04;10.30;;;9.33;;
2225;SDS011;1119;48.288;8.726;2023-04-09T13:38:54;11.63;;;10.47;;
2225;SDS011;1119;48.288;8.726;2023-04-09T13:41:48;14.73;;;13.60;;
2225;SDS011;1119;48.288;8.726;2023-04-09T13:44:37;8.97;;;8.10;;
2225;SDS011;1119;48.288;8.726;2023-04-09T13:47:26;6.93;;;6.37;;
2225;SDS011;1119;48.288;8.726;2023-04-09T13:50:14;8.40;;;7.40;;
2225;SDS011;1119;48.288;8.726;2023-04-09T13:53:01;13.30;;;9.67;;
2225;SDS011;1119;48.288;8.726;2023-04-09T13:55:51;8.27;;;7.23;;
2225;SDS011;1119;48.288;8.726;2023-04-09T13:58:39;7.60;;;6.90;;
2225;SDS011;1119;48.288;8.726;2023-04-09T14:01:28;7.30;;;6.70;;
2225;SDS011;1119;48.288;8.726;2023-04-09T14:04:16;9.83;;;8.83;;
2225;SDS011;1119;48.288;8.726;2023-04-09T14:07:04;6.90;;;6.30;;
2225;SDS011;1119;48.288;8.726;2023-04-09T14:09:52;10.30;;;9.40;;
2225;SDS011;1119;48.288;8.726;2023-04-09T14:12:41;8.50;;;7.70;;
2225;SDS011;1119;48.288;8.726;2023-04-09T14:15:29;8.90;;;8.00;;
2225;SDS011;1119;48.288;8.726;2023-04-09T14:18:16;7.40;;;6.70;;
2225;SDS011;1119;48.288;8.726;2023-04-09T14:21:04;9.23;;;8.33;;
2225;SDS011;1119;48.288;8.726;2023-04-09T14:28:21;7.70;;;6.97;;
2225;SDS011;1119;48.288;8.726;2023-04-09T14:31:09;8.27;;;6.30;;
2225;SDS011;1119;48.288;8.726;2023-04-09T14:33:57;8.87;;;7.97;;
2225;SDS011;1119;48.288;8.726;2023-04-09T14:36:45;8.93;;;7.90;;
2225;SDS011;1119;48.288;8.726;2023-04-09T14:39:32;10.13;;;8.53;;
2225;SDS011;1119;48.288;8.726;2023-04-09T14:42:23;9.53;;;8.53;;
2225;SDS011;1119;48.288;8.726;2023-04-09T14:45:12;10.60;;;9.43;;
2225;SDS011;1119;48.288;8.726;2023-04-09T14:48:00;16.47;;;12.77;;
2225;SDS011;1119;48.288;8.726;2023-04-09T14:50:47;12.23;;;11.00;;
2225;SDS011;1119;48.288;8.726;2023-04-09T14:53:36;10.10;;;9.10;;
2225;SDS011;1119;48.288;8.726;2023-04-09T14:56:24;8.70;;;7.90;;
2225;SDS011;1119;48.288;8.726;2023-04-09T14:59:11;10.03;;;9.20;;
2225;SDS011;1119;48.288;8.726;2023-04-09T15:02:00;10.00;;;9.13;;
2225;SDS011;1119;48.288;8.726;2023-04-09T15:04:48;11.03;;;9.90;;
2225;SDS011;1119;48.288;8.726;2023-04-09T15:07:36;9.20;;;8.40;;
2225;SDS011;1119;48.288;8.726;2023-04-09T15:10:23;7.13;;;6.53;;
2225;SDS011;1119;48.288;8.726;2023-04-09T15:13:12;13.93;;;11.40;;
2225;SDS011;1119;48.288;8.726;2023-04-09T15:15:59;8.73;;;8.10;;
2225;SDS011;1119;48.288;8.726;2023-04-09T15:18:48;8.80;;;8.10;;
2225;SDS011;1119;48.288;8.726;2023-04-09T15:21:36;9.50;;;8.63;;
2225;SDS011;1119;48.288;8.726;2023-04-09T15:24:24;8.87;;;8.10;;
2225;SDS011;1119;48.288;8.726;2023-04-09T15:27:11;9.80;;;8.63;;
2225;SDS011;1119;48.288;8.726;2023-04-09T15:29:59;9.57;;;8.80;;
2225;SDS011;1119;48.288;8.726;2023-04-09T15:32:46;25.80;;;24.33;;
2225;SDS011;1119;48.288;8.726;2023-04-09T15:35:35;10.90;;;10.10;;
2225;SDS011;1119;48.288;8.726;2023-04-09T15:38:23;5.70;;;5.20;;
2225;SDS011;1119;48.288;8.726;2023-04-09T15:41:11;6.63;;;6.10;;
2225;SDS011;1119;48.288;8.726;2023-04-09T15:44:01;7.03;;;6.43;;
2225;SDS011;1119;48.288;8.726;2023-04-09T15:46:49;6.10;;;5.60;;
2225;SDS011;1119;48.288;8.726;2023-04-09T15:49:37;7.30;;;6.60;;
2225;SDS011;1119;48.288;8.726;2023-04-09T15:52:26;9.37;;;8.60;;
2225;SDS011;1119;48.288;8.726;2023-04-09T15:55:13;21.90;;;20.63;;
2225;SDS011;1119;48.288;8.726;2023-04-09T15:58:01;20.27;;;18.67;;
2225;SDS011;1119;48.288;8.726;2023-04-09T16:00:48;11.63;;;10.63;;
2225;SDS011;1119;48.288;8.726;2023-04-09T16:03:36;19.70;;;18.57;;
2225;SDS011;1119;48.288;8.726;2023-04-09T16:06:25;17.60;;;16.10;;
2225;SDS011;1119;48.288;8.726;2023-04-09T16:09:15;35.17;;;33.10;;
2225;SDS011;1119;48.288;8.726;2023-04-09T16:12:03;8.80;;;7.60;;
2225;SDS011;1119;48.288;8.726;2023-04-09T16:14:51;6.80;;;6.20;;
2225;SDS011;1119;48.288;8.726;2023-04-09T16:17:39;7.83;;;7.03;;
2225;SDS011;1119;48.288;8.726;2023-04-09T16:20:26;7.00;;;6.43;;
2225;SDS011;1119;48.288;8.726;2023-04-09T16:23:15;12.63;;;8.70;;
2225;SDS011;1119;48.288;8.726;2023-04-09T16:26:05;7.93;;;7.20;;
2225;SDS011;1119;48.288;8.726;2023-04-09T16:28:52;9.73;;;8.80;;
2225;SDS011;1119;48.288;8.726;2023-04-09T16:31:40;9.63;;;8.87;;
2225;SDS011;1119;48.288;8.726;2023-04-09T16:34:27;11.00;;;10.23;;
2225;SDS011;1119;48.288;8.726;2023-04-09T16:37:16;10.50;;;9.80;;
2225;SDS011;1119;48.288;8.726;2023-04-09T16:40:04;11.83;;;11.13;;
2225;SDS011;1119;48.288;8.726;2023-04-09T16:42:54;12.00;;;11.10;;
2225;SDS011;1119;48.288;8.726;2023-04-09T16:45:42;11.90;;;11.10;;
2225;SDS011;1119;48.288;8.726;2023-04-09T16:48:29;11.00;;;10.30;;
2225;SDS011;1119;48.288;8.726;2023-04-09T16:51:17;18.47;;;17.30;;
2225;SDS011;1119;48.288;8.726;2023-04-09T16:54:05;16.13;;;14.73;;
2225;SDS011;1119;48.288;8.726;2023-04-09T16:56:52;11.47;;;10.80;;
2225;SDS011;1119;48.288;8.726;2023-04-09T16:59:43;21.83;;;20.30;;
2225;SDS011;1119;48.288;8.726;2023-04-09T17:02:30;18.90;;;17.90;;
2225;SDS011;1119;48.288;8.726;2023-04-09T17:05:18;46.27;;;44.00;;
2225;SDS011;1119;48.288;8.726;2023-04-09T17:08:07;20.13;;;19.00;;
2225;SDS011;1119;48.288;8.726;2023-04-09T17:10:54;12.83;;;11.77;;
2225;SDS011;1119;48.288;8.726;2023-04-09T17:13:46;8.57;;;7.67;;
2225;SDS011;1119;48.288;8.726;2023-04-09T17:16:35;12.00;;;11.00;;